Terminal Aerodrome Forecast
Issued by NWS

Home | Current Version | Previous Version | Text Only | Print | Product List | Glossary On
Versions: 1 2 3 4 5 6 7 8 9 10 11 12 13 14 15 16 17 18 19 20 21
000
FTUS46 KPQR 251736
TAFONP
TAF
KONP 251736Z 2518/2618 24005KT 4SM BR OVC005
     FM252200 28007KT 6SM BR BKN005
      TEMPO 2522/2602 SCT005
     FM260200 18007KT 3SM BR OVC005
     FM260900 21004KT 5SM BR SCT005 OVC010=

USA.gov is the U.S. government's official web portal to all federal, state and local government web resources and services.